sensor_id;sensor_type;location;lat;lon;timestamp;pressure;altitude;pressure_sealevel;temperature;humidity
74431;BME280;62863;52.062;23.764;2023-04-01T00:01:18;1005.9;;;10.3;75.6
74431;BME280;62863;52.062;23.764;2023-04-01T00:06:36;1005.9;;;10.3;75.7
74431;BME280;62863;52.062;23.764;2023-04-01T00:11:20;1005.9;;;10.2;76.1
74431;BME280;62863;52.062;23.764;2023-04-01T00:16:18;1005.8;;;10.2;76.1
74431;BME280;62863;52.062;23.764;2023-04-01T00:21:36;1005.8;;;10.1;75.9
74431;BME280;62863;52.062;23.764;2023-04-01T00:25:54;1005.7;;;10.1;75.9
74431;BME280;62863;52.062;23.764;2023-04-01T00:31:36;1005.7;;;10;77.4
74431;BME280;62863;52.062;23.764;2023-04-01T00:36:21;1005.6;;;10;77.7
74431;BME280;62863;52.062;23.764;2023-04-01T00:41:00;1005.5;;;10;77.2
74431;BME280;62863;52.062;23.764;2023-04-01T00:46:34;1005.4;;;10;76.7
74431;BME280;62863;52.062;23.764;2023-04-01T00:51:13;1005.3;;;9.9;76.9
74431;BME280;62863;52.062;23.764;2023-04-01T00:56:35;1005.3;;;9.9;77
74431;BME280;62863;52.062;23.764;2023-04-01T01:01:18;1005.3;;;9.9;77.5
74431;BME280;62863;52.062;23.764;2023-04-01T01:06:07;1005.3;;;9.9;78.5
74431;BME280;62863;52.062;23.764;2023-04-01T01:11:35;1005.3;;;9.9;78.5
74431;BME280;62863;52.062;23.764;2023-04-01T01:16:15;1005.3;;;9.9;78.6
74431;BME280;62863;52.062;23.764;2023-04-01T01:21:45;1005.2;;;9.9;77.9
74431;BME280;62863;52.062;23.764;2023-04-01T01:26:23;1005.2;;;9.9;78.2
74431;BME280;62863;52.062;23.764;2023-04-01T01:31:19;1005.2;;;9.9;78.3
74431;BME280;62863;52.062;23.764;2023-04-01T01:36:34;1005.1;;;9.9;78.2
74431;BME280;62863;52.062;23.764;2023-04-01T01:41:26;1005.1;;;9.8;78.6
74431;BME280;62863;52.062;23.764;2023-04-01T01:46:25;1005.1;;;9.8;78.6
74431;BME280;62863;52.062;23.764;2023-04-01T01:51:21;1005;;;9.7;78.1
74431;BME280;62863;52.062;23.764;2023-04-01T01:55:54;1005;;;9.6;78.4
74431;BME280;62863;52.062;23.764;2023-04-01T02:01:35;1005;;;9.5;79
74431;BME280;62863;52.062;23.764;2023-04-01T02:06:19;1005;;;9.4;79.6
74431;BME280;62863;52.062;23.764;2023-04-01T02:11:26;1004.9;;;9.3;79.8
74431;BME280;62863;52.062;23.764;2023-04-01T02:16:36;1004.8;;;9.2;80.1
74431;BME280;62863;52.062;23.764;2023-04-01T02:20:55;1004.8;;;9.1;79.9
74431;BME280;62863;52.062;23.764;2023-04-01T02:26:34;1004.8;;;9.1;79.9
74431;BME280;62863;52.062;23.764;2023-04-01T02:31:12;1004.8;;;9;80.1
74431;BME280;62863;52.062;23.764;2023-04-01T02:36:28;1004.9;;;8.9;80.4
74431;BME280;62863;52.062;23.764;2023-04-01T02:41:38;1004.9;;;8.8;79.7
74431;BME280;62863;52.062;23.764;2023-04-01T02:46:34;1005;;;8.7;79.5
74431;BME280;62863;52.062;23.764;2023-04-01T02:51:34;1004.9;;;8.6;79.3
74431;BME280;62863;52.062;23.764;2023-04-01T02:56:12;1004.9;;;8.7;80.4
74431;BME280;62863;52.062;23.764;2023-04-01T03:01:24;1004.8;;;8.7;80.7
74431;BME280;62863;52.062;23.764;2023-04-01T03:06:34;1004.8;;;8.8;80.8
74431;BME280;62863;52.062;23.764;2023-04-01T03:10:54;1004.7;;;8.9;80.7
74431;BME280;62863;52.062;23.764;2023-04-01T03:16:34;1004.7;;;9;80.5
74431;BME280;62863;52.062;23.764;2023-04-01T03:20:54;1004.7;;;9;80
74431;BME280;62863;52.062;23.764;2023-04-01T03:26:24;1004.7;;;8.9;79.4
74431;BME280;62863;52.062;23.764;2023-04-01T03:31:34;1004.7;;;8.8;79
74431;BME280;62863;52.062;23.764;2023-04-01T03:36:12;1004.7;;;8.7;79.1
74431;BME280;62863;52.062;23.764;2023-04-01T03:41:35;1004.8;;;8.6;79.4
74431;BME280;62863;52.062;23.764;2023-04-01T03:46:16;1004.8;;;8.6;80.2
74431;BME280;62863;52.062;23.764;2023-04-01T03:51:24;1004.8;;;8.5;80.9
74431;BME280;62863;52.062;23.764;2023-04-01T03:56:34;1004.8;;;8.4;81
74431;BME280;62863;52.062;23.764;2023-04-01T04:00:54;1004.9;;;8.3;81
74431;BME280;62863;52.062;23.764;2023-04-01T04:06:34;1004.8;;;8.3;80.7
74431;BME280;62863;52.062;23.764;2023-04-01T04:11:02;1004.7;;;8.3;81.2
74431;BME280;62863;52.062;23.764;2023-04-01T04:16:24;1004.8;;;8.3;81
74431;BME280;62863;52.062;23.764;2023-04-01T04:21:34;1004.8;;;8.3;80.3
74431;BME280;62863;52.062;23.764;2023-04-01T04:25:55;1004.8;;;8.3;80
74431;BME280;62863;52.062;23.764;2023-04-01T04:31:34;1004.7;;;8.4;80
74431;BME280;62863;52.062;23.764;2023-04-01T04:36:05;1004.7;;;8.5;79.7
74431;BME280;62863;52.062;23.764;2023-04-01T04:41:22;1004.7;;;8.5;79.6
74431;BME280;62863;52.062;23.764;2023-04-01T04:46:34;1004.8;;;8.6;80.1
74431;BME280;62863;52.062;23.764;2023-04-01T04:50:54;1004.8;;;8.8;79.9
74431;BME280;62863;52.062;23.764;2023-04-01T04:56:34;1004.9;;;8.9;79.5
74431;BME280;62863;52.062;23.764;2023-04-01T05:01:05;1005;;;8.9;79.1
74431;BME280;62863;52.062;23.764;2023-04-01T05:06:24;1005;;;9;78.9
74431;BME280;62863;52.062;23.764;2023-04-01T05:11:34;1005;;;9.1;78.7
74431;BME280;62863;52.062;23.764;2023-04-01T05:16:07;1005;;;9.2;78.4
74431;BME280;62863;52.062;23.764;2023-04-01T05:21:34;1005;;;9.2;78
74431;BME280;62863;52.062;23.764;2023-04-01T05:26:34;1005;;;9.3;77.8
74431;BME280;62863;52.062;23.764;2023-04-01T05:31:24;1005.1;;;9.3;77.7
74431;BME280;62863;52.062;23.764;2023-04-01T05:36:20;1005.1;;;9.3;77.7
74431;BME280;62863;52.062;23.764;2023-04-01T05:40:58;1005.1;;;9.3;78
74431;BME280;62863;52.062;23.764;2023-04-01T05:46:00;1005.1;;;9.3;78.5
74431;BME280;62863;52.062;23.764;2023-04-01T05:51:26;1005.1;;;9.4;78.6
74431;BME280;62863;52.062;23.764;2023-04-01T05:56:32;1005.1;;;9.4;78.4
74431;BME280;62863;52.062;23.764;2023-04-01T06:01:26;1005;;;9.5;78.1
74431;BME280;62863;52.062;23.764;2023-04-01T06:05:54;1005;;;9.6;77.9
74431;BME280;62863;52.062;23.764;2023-04-01T06:11:14;1005;;;9.6;77.8
74431;BME280;62863;52.062;23.764;2023-04-01T06:16:28;1005;;;9.7;77.8
74431;BME280;62863;52.062;23.764;2023-04-01T06:21:41;1005;;;9.8;77.6
74431;BME280;62863;52.062;23.764;2023-04-01T06:26:29;1005.1;;;10;77.3
74431;BME280;62863;52.062;23.764;2023-04-01T06:30:56;1005.1;;;10;76.8
74431;BME280;62863;52.062;23.764;2023-04-01T06:36:14;1005.1;;;10;76.9
74431;BME280;62863;52.062;23.764;2023-04-01T06:46:29;1005.1;;;10.3;76.3
74431;BME280;62863;52.062;23.764;2023-04-01T06:51:26;1005.1;;;10.3;75.6
74431;BME280;62863;52.062;23.764;2023-04-01T06:55:55;1005.1;;;10.3;75.4
74431;BME280;62863;52.062;23.764;2023-04-01T07:00:56;1005.2;;;10.4;75.3
74431;BME280;62863;52.062;23.764;2023-04-01T07:06:27;1005.2;;;10.4;75.2
74431;BME280;62863;52.062;23.764;2023-04-01T07:11:35;1005.1;;;10.5;75.6
74431;BME280;62863;52.062;23.764;2023-04-01T07:16:27;1005.1;;;10.6;75.7
74431;BME280;62863;52.062;23.764;2023-04-01T07:21:29;1005.2;;;10.7;75.3
74431;BME280;62863;52.062;23.764;2023-04-01T07:25:55;1005.2;;;11;75.1
74431;BME280;62863;52.062;23.764;2023-04-01T07:31:20;1005.2;;;11.2;74.6
74431;BME280;62863;52.062;23.764;2023-04-01T07:36:31;1005.2;;;11.5;74
74431;BME280;62863;52.062;23.764;2023-04-01T07:41:28;1005.2;;;12;72.7
74431;BME280;62863;52.062;23.764;2023-04-01T07:45:56;1005.2;;;12;71.6
74431;BME280;62863;52.062;23.764;2023-04-01T07:50:55;1005.2;;;12.2;71.4
74431;BME280;62863;52.062;23.764;2023-04-01T07:56:27;1005.2;;;12.4;71.5
74431;BME280;62863;52.062;23.764;2023-04-01T08:01:36;1005.2;;;12.6;70.7
74431;BME280;62863;52.062;23.764;2023-04-01T08:06:28;1005.2;;;12.6;70.2
74431;BME280;62863;52.062;23.764;2023-04-01T08:10:55;1005.2;;;13;69.5
74431;BME280;62863;52.062;23.764;2023-04-01T08:15:55;1005.2;;;13.4;69.1
74431;BME280;62863;52.062;23.764;2023-04-01T08:21:27;1005.3;;;13.6;68.8
74431;BME280;62863;52.062;23.764;2023-04-01T08:26:35;1005.3;;;13.6;68.3
74431;BME280;62863;52.062;23.764;2023-04-01T08:30:56;1005.2;;;13.9;67
74431;BME280;62863;52.062;23.764;2023-04-01T08:36:11;1005.2;;;14.3;65.6
74431;BME280;62863;52.062;23.764;2023-04-01T08:41:16;1005.2;;;14.2;65.9
74431;BME280;62863;52.062;23.764;2023-04-01T08:46:29;1005.2;;;14.5;65.4
74431;BME280;62863;52.062;23.764;2023-04-01T08:51:52;1005.2;;;15.4;62.6
74431;BME280;62863;52.062;23.764;2023-04-01T08:56:25;1005.2;;;16.9;59.9
74431;BME280;62863;52.062;23.764;2023-04-01T09:01:11;1005.2;;;17.1;58
74431;BME280;62863;52.062;23.764;2023-04-01T09:06:21;1005.2;;;16.9;58.5
74431;BME280;62863;52.062;23.764;2023-04-01T09:11:33;1005.2;;;16.8;59.1
74431;BME280;62863;52.062;23.764;2023-04-01T09:16:43;1005.1;;;17;58
74431;BME280;62863;52.062;23.764;2023-04-01T09:21:31;1005.1;;;17.1;58
74431;BME280;62863;52.062;23.764;2023-04-01T09:26:06;1005.1;;;17.3;56.4
74431;BME280;62863;52.062;23.764;2023-04-01T09:31:03;1005.2;;;16.8;57.1
74431;BME280;62863;52.062;23.764;2023-04-01T09:36:33;1005.3;;;16.3;59.2
74431;BME280;62863;52.062;23.764;2023-04-01T09:41:39;1005.2;;;16.4;59.3
74431;BME280;62863;52.062;23.764;2023-04-01T09:46:33;1005.3;;;16.4;59
74431;BME280;62863;52.062;23.764;2023-04-01T09:50:59;1005.3;;;16.2;58.9
74431;BME280;62863;52.062;23.764;2023-04-01T09:56:19;1005.4;;;16.2;58.1
74431;BME280;62863;52.062;23.764;2023-04-01T10:12:39;1005.2;;;17.5;57.9
74431;BME280;62863;52.062;23.764;2023-04-01T10:17:20;1005.2;;;18.2;56.4
74431;BME280;62863;52.062;23.764;2023-04-01T10:21:00;1005.2;;;18.7;53.9
74431;BME280;62863;52.062;23.764;2023-04-01T10:26:03;1005.2;;;19.3;52.1
74431;BME280;62863;52.062;23.764;2023-04-01T10:31:58;1005.2;;;18.8;53
74431;BME280;62863;52.062;23.764;2023-04-01T10:36:03;1005.2;;;17.9;53.7
74431;BME280;62863;52.062;23.764;2023-04-01T10:41:14;1005.3;;;16.7;56.3
74431;BME280;62863;52.062;23.764;2023-04-01T10:46:17;1005.3;;;15.8;57.7
74431;BME280;62863;52.062;23.764;2023-04-01T10:51:10;1005.3;;;15.3;58.5
74431;BME280;62863;52.062;23.764;2023-04-01T10:56:34;1005.4;;;14.8;59.3
74431;BME280;62863;52.062;23.764;2023-04-01T11:06:17;1005.4;;;14.2;61.5
74431;BME280;62863;52.062;23.764;2023-04-01T11:11:20;1005.4;;;14.1;62.1
74431;BME280;62863;52.062;23.764;2023-04-01T11:16:00;1005.4;;;14.3;62.3
74431;BME280;62863;52.062;23.764;2023-04-01T11:21:44;1005.4;;;14.5;62.6
74431;BME280;62863;52.062;23.764;2023-04-01T11:26:31;1005.5;;;15;61.9
74431;BME280;62863;52.062;23.764;2023-04-01T11:31:00;1005.5;;;15.5;60.9
74431;BME280;62863;52.062;23.764;2023-04-01T11:40:58;1005.5;;;15.9;59.2
74431;BME280;62863;52.062;23.764;2023-04-01T11:46:37;1005.5;;;15.2;60
74431;BME280;62863;52.062;23.764;2023-04-01T11:51:30;1005.5;;;15;61.1
74431;BME280;62863;52.062;23.764;2023-04-01T11:55:59;1005.5;;;14.9;61.3
74431;BME280;62863;52.062;23.764;2023-04-01T12:01:14;1005.5;;;14.8;61.2
74431;BME280;62863;52.062;23.764;2023-04-01T12:06:25;1005.5;;;14.8;60.9
74431;BME280;62863;52.062;23.764;2023-04-01T12:11:37;1005.6;;;14.9;60.9
74431;BME280;62863;52.062;23.764;2023-04-01T12:16:36;1005.6;;;15.3;60.1
74431;BME280;62863;52.062;23.764;2023-04-01T12:21:08;1005.7;;;15.6;59.6
74431;BME280;62863;52.062;23.764;2023-04-01T12:31:05;1005.7;;;15.7;59.2
74431;BME280;62863;52.062;23.764;2023-04-01T12:41:28;1005.7;;;15.5;57.6
74431;BME280;62863;52.062;23.764;2023-04-01T12:51:22;1005.7;;;15.5;57.7
74431;BME280;62863;52.062;23.764;2023-04-01T13:06:31;1005.8;;;16.4;54.9
74431;BME280;62863;52.062;23.764;2023-04-01T13:16:13;1005.9;;;15.8;53.7
74431;BME280;62863;52.062;23.764;2023-04-01T13:20:59;1005.9;;;15.2;54.2
74431;BME280;62863;52.062;23.764;2023-04-01T13:31:33;1006;;;14.5;55.8
74431;BME280;62863;52.062;23.764;2023-04-01T13:41:14;1006.1;;;14.2;57
74431;BME280;62863;52.062;23.764;2023-04-01T13:46:09;1006.2;;;14.2;57.7
74431;BME280;62863;52.062;23.764;2023-04-01T13:51:41;1006.1;;;14.4;57.2
74431;BME280;62863;52.062;23.764;2023-04-01T13:56:30;1006;;;14.7;57.6
74431;BME280;62863;52.062;23.764;2023-04-01T14:01:00;1006;;;15.1;56.6
74431;BME280;62863;52.062;23.764;2023-04-01T14:06:19;1005.9;;;16.3;54.8
74431;BME280;62863;52.062;23.764;2023-04-01T14:16:33;1005.8;;;17.4;51.6
74431;BME280;62863;52.062;23.764;2023-04-01T14:21:38;1005.8;;;16.8;52.1
74431;BME280;62863;52.062;23.764;2023-04-01T14:26:33;1005.8;;;16.3;51.9
74431;BME280;62863;52.062;23.764;2023-04-01T14:31:17;1005.8;;;16.1;51.7
74431;BME280;62863;52.062;23.764;2023-04-01T14:36:01;1005.8;;;15.7;51.9
74431;BME280;62863;52.062;23.764;2023-04-01T14:41:41;1005.8;;;15.7;52.3
74431;BME280;62863;52.062;23.764;2023-04-01T14:46:44;1005.8;;;16.4;51.6
74431;BME280;62863;52.062;23.764;2023-04-01T14:51:29;1005.8;;;17.2;49.4
74431;BME280;62863;52.062;23.764;2023-04-01T15:01:07;1005.8;;;18.4;47.4
74431;BME280;62863;52.062;23.764;2023-04-01T15:06:16;1005.8;;;18.5;47
74431;BME280;62863;52.062;23.764;2023-04-01T15:11:43;1005.9;;;18.4;47.2
74431;BME280;62863;52.062;23.764;2023-04-01T15:16:31;1006;;;18.2;47.3
74431;BME280;62863;52.062;23.764;2023-04-01T15:21:31;1006;;;18;47.3
74431;BME280;62863;52.062;23.764;2023-04-01T15:26:21;1006.1;;;17.6;47.7
74431;BME280;62863;52.062;23.764;2023-04-01T15:31:25;1006.1;;;17.2;48
74431;BME280;62863;52.062;23.764;2023-04-01T15:41:02;1006.3;;;16.3;50.5
74431;BME280;62863;52.062;23.764;2023-04-01T15:47:25;1006.3;;;15.8;51.1
74431;BME280;62863;52.062;23.764;2023-04-01T15:56:35;1006.5;;;14.5;53.3
74431;BME280;62863;52.062;23.764;2023-04-01T16:01:26;1006.5;;;14.2;54.1
74431;BME280;62863;52.062;23.764;2023-04-01T16:15:59;1006.7;;;13.9;54.6
74431;BME280;62863;52.062;23.764;2023-04-01T16:26:37;1006.8;;;13.8;55.7
74431;BME280;62863;52.062;23.764;2023-04-01T16:36:17;1006.9;;;13.6;57.4
74431;BME280;62863;52.062;23.764;2023-04-01T16:41:23;1006.9;;;13.6;57.4
74431;BME280;62863;52.062;23.764;2023-04-01T16:56:20;1007.1;;;12.5;60
74431;BME280;62863;52.062;23.764;2023-04-01T17:01:04;1007.2;;;12.4;61.2
74431;BME280;62863;52.062;23.764;2023-04-01T17:11:31;1007.2;;;12.4;62.6
74431;BME280;62863;52.062;23.764;2023-04-01T17:16:43;1007.3;;;12.4;63.3
74431;BME280;62863;52.062;23.764;2023-04-01T17:26:02;1007.3;;;12.4;63.3
74431;BME280;62863;52.062;23.764;2023-04-01T17:31:26;1007.4;;;12.3;63.9
74431;BME280;62863;52.062;23.764;2023-04-01T17:36:21;1007.4;;;12.3;65
74431;BME280;62863;52.062;23.764;2023-04-01T17:41:31;1007.5;;;12.3;65.9
74431;BME280;62863;52.062;23.764;2023-04-01T17:46:26;1007.5;;;12.1;65.5
74431;BME280;62863;52.062;23.764;2023-04-01T17:56:22;1007.6;;;12;66
74431;BME280;62863;52.062;23.764;2023-04-01T18:01:02;1007.7;;;12;66.6
74431;BME280;62863;52.062;23.764;2023-04-01T18:06:33;1007.7;;;12;67.7
74431;BME280;62863;52.062;23.764;2023-04-01T18:11:34;1007.7;;;12;67.2
74431;BME280;62863;52.062;23.764;2023-04-01T18:16:45;1007.7;;;12;67
74431;BME280;62863;52.062;23.764;2023-04-01T18:21:14;1007.8;;;12;66.5
74431;BME280;62863;52.062;23.764;2023-04-01T18:26:13;1007.8;;;11.9;66.7
74431;BME280;62863;52.062;23.764;2023-04-01T18:31:35;1007.8;;;11.9;66.8
74431;BME280;62863;52.062;23.764;2023-04-01T18:36:33;1007.8;;;11.9;66.6
74431;BME280;62863;52.062;23.764;2023-04-01T18:41:13;1007.9;;;11.9;67.1
74431;BME280;62863;52.062;23.764;2023-04-01T18:46:25;1007.9;;;11.9;67.1
74431;BME280;62863;52.062;23.764;2023-04-01T18:51:13;1007.9;;;11.9;67.7
74431;BME280;62863;52.062;23.764;2023-04-01T18:56:37;1007.9;;;11.9;67.2
74431;BME280;62863;52.062;23.764;2023-04-01T19:01:31;1008;;;11.8;67
74431;BME280;62863;52.062;23.764;2023-04-01T19:15:57;1008;;;11.8;67
74431;BME280;62863;52.062;23.764;2023-04-01T19:21:37;1008.1;;;11.3;67.3
74431;BME280;62863;52.062;23.764;2023-04-01T19:26:29;1008.2;;;11.3;67.2
74431;BME280;62863;52.062;23.764;2023-04-01T19:31:30;1008.3;;;11.2;67.9
74431;BME280;62863;52.062;23.764;2023-04-01T19:36:14;1008.4;;;11.2;67.4
74431;BME280;62863;52.062;23.764;2023-04-01T19:41:04;1008.5;;;11.2;67.6
74431;BME280;62863;52.062;23.764;2023-04-01T19:46:30;1008.6;;;11.3;67.3
74431;BME280;62863;52.062;23.764;2023-04-01T19:51:19;1008.7;;;11.3;67.1
74431;BME280;62863;52.062;23.764;2023-04-01T19:56:14;1008.7;;;11.3;67.2
74431;BME280;62863;52.062;23.764;2023-04-01T20:01:05;1008.7;;;11.3;67.2
74431;BME280;62863;52.062;23.764;2023-04-01T20:06:05;1008.7;;;11.3;66.8
74431;BME280;62863;52.062;23.764;2023-04-01T20:11:38;1008.8;;;11.3;67.2
74431;BME280;62863;52.062;23.764;2023-04-01T20:16:35;1008.8;;;11.3;66.8
74431;BME280;62863;52.062;23.764;2023-04-01T20:20:57;1008.9;;;11.2;66
74431;BME280;62863;52.062;23.764;2023-04-01T20:36:36;1009;;;11.1;67.1
74431;BME280;62863;52.062;23.764;2023-04-01T20:51:12;1008.9;;;11.2;67.4
74431;BME280;62863;52.062;23.764;2023-04-01T20:56:16;1009;;;11.1;67.4
74431;BME280;62863;52.062;23.764;2023-04-01T21:01:37;1009;;;11.1;67
74431;BME280;62863;52.062;23.764;2023-04-01T21:06:18;1009.1;;;11;66.8
74431;BME280;62863;52.062;23.764;2023-04-01T21:11:15;1009.1;;;10.9;67.2
74431;BME280;62863;52.062;23.764;2023-04-01T21:16:10;1009.1;;;10.9;67.9
74431;BME280;62863;52.062;23.764;2023-04-01T21:21:18;1009.1;;;10.9;67.9
74431;BME280;62863;52.062;23.764;2023-04-01T21:41:17;1009.2;;;10.9;67.2
74431;BME280;62863;52.062;23.764;2023-04-01T21:46:19;1009.3;;;10.5;67.9
74431;BME280;62863;52.062;23.764;2023-04-01T21:56:38;1009.5;;;10.4;70
74431;BME280;62863;52.062;23.764;2023-04-01T22:01:22;1009.5;;;10.5;71
74431;BME280;62863;52.062;23.764;2023-04-01T22:16:36;1009.7;;;10.4;71.1
74431;BME280;62863;52.062;23.764;2023-04-01T22:21:29;1009.7;;;10.4;71.5
74431;BME280;62863;52.062;23.764;2023-04-01T22:41:25;1009.7;;;10.6;71.6
74431;BME280;62863;52.062;23.764;2023-04-01T22:46:01;1009.9;;;10.4;70.7
74431;BME280;62863;52.062;23.764;2023-04-01T22:56:15;1009.9;;;10.4;71.4
74431;BME280;62863;52.062;23.764;2023-04-01T23:11:09;1009.9;;;10.4;71.4
74431;BME280;62863;52.062;23.764;2023-04-01T23:16:20;1009.9;;;10.4;71.4
74431;BME280;62863;52.062;23.764;2023-04-01T23:21:00;1009.9;;;10.4;71.4
74431;BME280;62863;52.062;23.764;2023-04-01T23:26:34;1010.1;;;10.3;71.7
74431;BME280;62863;52.062;23.764;2023-04-01T23:41:20;1010.2;;;10;71.7
74431;BME280;62863;52.062;23.764;2023-04-01T23:46:05;1010.3;;;9.9;72.2
